Time;durP1;ratioP1;P1;durP2;ratioP2;P2;SDS_P1;SDS_P2;PMS_P1;PMS_P2;Temp;Humidity;BMP_temperature;BMP_pressure;BME280_temperature;BME280_humidity;BME280_pressure;Samples;Min_cycle;Max_cycle;Signal;HPM_P1;HPM_P2
2022/09/16 00:01:18;;;;;;;7.18;1.20;;;10.70;99.90;;;;;;5060387;28;20484;-66
2022/09/16 00:03:44;;;;;;;8.80;1.30;;;10.70;99.90;;;;;;5065302;28;20110;-67
2022/09/16 00:06:22;;;;;;;6.75;0.93;;;10.70;99.90;;;;;;5058330;28;20171;-69
2022/09/16 00:08:48;;;;;;;11.10;1.55;;;10.60;99.90;;;;;;5060840;28;20408;-70
2022/09/16 00:11:14;;;;;;;4.57;0.98;;;10.70;99.90;;;;;;5064488;28;20064;-69
2022/09/16 00:13:40;;;;;;;4.28;1.35;;;10.70;99.90;;;;;;5033346;28;20040;-68
2022/09/16 00:16:08;;;;;;;8.07;1.40;;;10.70;99.90;;;;;;5064267;28;20522;-70
2022/09/16 00:18:34;;;;;;;9.43;1.30;;;10.80;99.90;;;;;;5055513;28;20041;-69
2022/09/16 00:21:00;;;;;;;7.80;1.10;;;10.80;99.90;;;;;;5051238;28;20499;-68
2022/09/16 00:23:25;;;;;;;7.63;1.10;;;10.80;99.90;;;;;;5074669;28;20040;-69
2022/09/16 00:25:54;;;;;;;9.82;1.15;;;10.90;99.90;;;;;;5088282;28;20039;-69
2022/09/16 00:28:21;;;;;;;8.95;1.15;;;10.90;99.90;;;;;;5068313;28;20376;-69
2022/09/16 00:30:48;;;;;;;7.05;1.05;;;10.90;99.90;;;;;;5084495;28;20111;-68
2022/09/16 00:33:14;;;;;;;7.35;0.77;;;10.90;99.90;;;;;;5088280;28;20120;-68
2022/09/16 00:35:40;;;;;;;3.55;0.90;;;10.80;99.90;;;;;;5086136;28;20098;-68
2022/09/16 00:38:06;;;;;;;5.38;0.93;;;10.80;99.90;;;;;;5070324;28;20040;-68
2022/09/16 00:40:32;;;;;;;9.43;1.25;;;10.80;99.90;;;;;;5085688;28;20071;-68
2022/09/16 00:42:59;;;;;;;7.82;0.90;;;10.80;99.90;;;;;;5085311;28;20049;-69
2022/09/16 00:45:30;;;;;;;9.90;1.00;;;10.70;99.90;;;;;;5083659;28;20114;-69
2022/09/16 00:48:03;;;;;;;5.47;1.25;;;10.70;99.90;;;;;;5069961;28;20422;-69
2022/09/16 00:50:50;;;;;;;10.48;1.17;;;10.60;99.90;;;;;;5081374;28;20087;-69
2022/09/16 00:53:22;;;;;;;11.52;1.27;;;10.60;99.90;;;;;;5085507;28;20048;-69
2022/09/16 00:55:50;;;;;;;7.68;1.13;;;10.60;99.90;;;;;;5086811;28;20079;-69
2022/09/16 00:58:35;;;;;;;7.00;1.00;;;10.70;99.90;;;;;;5068636;28;20048;-69
2022/09/16 01:01:03;;;;;;;10.35;1.67;;;10.70;99.90;;;;;;5079349;28;20102;-69
2022/09/16 01:03:30;;;;;;;6.72;1.10;;;10.70;99.90;;;;;;5083256;28;20058;-69
2022/09/16 01:05:56;;;;;;;9.63;1.33;;;10.70;99.90;;;;;;5085742;28;20564;-69
2022/09/16 01:08:22;;;;;;;7.47;1.27;;;10.80;99.90;;;;;;5068731;28;20097;-69
2022/09/16 01:10:47;;;;;;;9.20;1.52;;;10.70;99.90;;;;;;5082205;28;20048;-69
2022/09/16 01:13:14;;;;;;;7.15;1.25;;;10.80;99.90;;;;;;5084458;28;20095;-69
2022/09/16 01:15:58;;;;;;;7.95;1.20;;;10.60;99.90;;;;;;5083708;28;20055;-69
2022/09/16 01:18:58;;;;;;;8.90;1.25;;;10.70;99.90;;;;;;5071109;28;20048;-69
2022/09/16 01:21:47;;;;;;;7.22;1.05;;;10.70;99.90;;;;;;5086046;28;20048;-69
2022/09/16 01:24:47;;;;;;;8.52;1.27;;;10.60;99.90;;;;;;5083475;28;20036;-69
2022/09/16 01:27:31;;;;;;;7.95;1.10;;;10.60;99.90;;;;;;5068351;28;20036;-68
2022/09/16 01:30:18;;;;;;;5.38;1.20;;;10.60;99.90;;;;;;5084572;28;20450;-69
2022/09/16 01:33:03;;;;;;;5.45;1.13;;;10.50;99.90;;;;;;5085604;28;20189;-70
2022/09/16 01:35:46;;;;;;;7.65;1.30;;;10.50;99.90;;;;;;5081993;28;20402;-69
2022/09/16 01:38:23;;;;;;;8.32;1.30;;;10.50;99.90;;;;;;5066749;28;20051;-70
2022/09/16 01:41:27;;;;;;;6.93;1.00;;;10.50;99.90;;;;;;5083955;28;20056;-68
2022/09/16 01:44:11;;;;;;;9.80;1.10;;;10.50;99.90;;;;;;5074731;28;20479;-68
2022/09/16 01:47:01;;;;;;;7.38;1.10;;;10.50;99.90;;;;;;5070246;28;20496;-68
2022/09/16 01:49:37;;;;;;;6.60;1.20;;;10.50;99.90;;;;;;5066974;28;20593;-67
2022/09/16 01:52:13;;;;;;;13.55;1.40;;;10.40;99.90;;;;;;5082476;28;20052;-69
2022/09/16 01:54:42;;;;;;;6.47;0.90;;;10.40;99.90;;;;;;5068580;28;20559;-69
2022/09/16 01:57:25;;;;;;;6.80;1.27;;;10.50;99.90;;;;;;5069232;28;20040;-68
2022/09/16 02:00:03;;;;;;;5.40;1.20;;;10.40;99.90;;;;;;5083325;28;20043;-69
2022/09/16 02:02:44;;;;;;;8.82;1.20;;;10.40;99.90;;;;;;5081936;28;20500;-68
2022/09/16 02:05:18;;;;;;;6.95;0.98;;;10.40;99.90;;;;;;5083930;28;20050;-68
2022/09/16 02:07:49;;;;;;;10.13;1.45;;;10.40;99.90;;;;;;5069805;28;20587;-68
2022/09/16 02:10:37;;;;;;;10.57;1.48;;;10.40;99.90;;;;;;5084570;28;20097;-68
2022/09/16 02:13:09;;;;;;;7.90;1.15;;;10.30;99.90;;;;;;5077426;28;20047;-68
2022/09/16 02:15:39;;;;;;;9.75;1.55;;;10.30;99.90;;;;;;5082947;28;20402;-69
2022/09/16 02:18:10;;;;;;;9.93;1.30;;;10.30;99.90;;;;;;5070521;28;20126;-68
2022/09/16 02:20:41;;;;;;;8.60;1.13;;;10.30;99.90;;;;;;5081933;28;20049;-69
2022/09/16 02:23:25;;;;;;;7.57;1.33;;;10.20;99.90;;;;;;5084508;28;20044;-68
2022/09/16 02:25:54;;;;;;;8.95;1.40;;;10.30;99.90;;;;;;5084208;28;20616;-68
2022/09/16 02:28:29;;;;;;;10.45;1.30;;;10.20;99.90;;;;;;5067470;28;20390;-68
2022/09/16 02:30:58;;;;;;;13.27;1.55;;;10.20;99.90;;;;;;5082318;28;20054;-68
2022/09/16 02:33:30;;;;;;;10.40;1.50;;;10.30;99.90;;;;;;5083342;28;20043;-68
2022/09/16 02:35:57;;;;;;;6.30;1.10;;;10.30;99.90;;;;;;5085647;28;20044;-68
2022/09/16 02:38:33;;;;;;;14.68;1.45;;;10.30;99.90;;;;;;5067341;28;20075;-68
2022/09/16 02:41:00;;;;;;;10.60;1.00;;;10.30;99.90;;;;;;5084612;28;20064;-68
2022/09/16 02:43:27;;;;;;;10.60;1.50;;;10.50;99.90;;;;;;5077210;28;20518;-69
2022/09/16 02:46:01;;;;;;;8.30;1.20;;;10.60;99.90;;;;;;5081910;28;20040;-71
2022/09/16 02:48:29;;;;;;;9.90;1.73;;;10.60;99.90;;;;;;5064439;28;20063;-70
2022/09/16 02:51:08;;;;;;;7.47;1.42;;;10.60;99.90;;;;;;5083446;28;20086;-70
2022/09/16 02:53:53;;;;;;;12.10;1.55;;;10.60;99.90;;;;;;5082492;28;20040;-70
2022/09/16 02:56:36;;;;;;;7.93;1.20;;;10.60;99.90;;;;;;5069488;28;20083;-70
2022/09/16 02:59:04;;;;;;;13.15;1.35;;;10.60;99.90;;;;;;5083296;28;20040;-70
2022/09/16 03:01:34;;;;;;;9.98;1.63;;;10.50;99.90;;;;;;5079188;28;20047;-71
2022/09/16 03:04:00;;;;;;;8.20;1.13;;;10.50;99.90;;;;;;5085556;28;20113;-70
2022/09/16 03:06:27;;;;;;;12.95;1.60;;;10.50;99.90;;;;;;5071707;28;20411;-71
2022/09/16 03:08:57;;;;;;;10.82;1.45;;;10.50;99.90;;;;;;5078712;28;20048;-70
2022/09/16 03:11:41;;;;;;;12.82;1.50;;;10.40;99.90;;;;;;5079733;28;20081;-70
2022/09/16 03:14:13;;;;;;;11.00;1.60;;;10.40;99.90;;;;;;5083294;28;20123;-70
2022/09/16 03:16:44;;;;;;;;;;;10.30;99.90;;;;;;5066578;28;20386;-71
2022/09/16 03:19:19;;;;;;;;;;;10.30;99.90;;;;;;5080708;28;19923;-70
2022/09/16 03:21:57;;;;;;;13.02;1.50;;;10.30;99.90;;;;;;5083345;28;20275;-70
2022/09/16 03:24:57;;;;;;;9.77;1.77;;;10.20;99.90;;;;;;5083358;28;20044;-70
2022/09/16 03:27:31;;;;;;;10.90;1.48;;;10.10;99.90;;;;;;5058872;28;20399;-70
2022/09/16 03:30:00;;;;;;;13.98;1.65;;;10.20;99.90;;;;;;5082407;28;20515;-70
2022/09/16 03:32:41;;;;;;;10.18;1.50;;;10.10;99.90;;;;;;5085124;28;20081;-69
2022/09/16 03:35:30;;;;;;;10.60;1.60;;;10.10;99.90;;;;;;5083720;28;20409;-70
2022/09/16 03:37:58;;;;;;;12.85;1.45;;;10.10;99.90;;;;;;5065958;28;20044;-70
2022/09/16 03:40:25;;;;;;;17.63;2.00;;;10.10;99.90;;;;;;5083395;28;20267;-69
2022/09/16 03:42:51;;;;;;;12.70;1.70;;;10.20;99.90;;;;;;5079267;28;20044;-70
2022/09/16 03:45:19;;;;;;;12.35;1.77;;;10.20;99.90;;;;;;5078462;28;20506;-70
2022/09/16 03:47:48;;;;;;;12.45;2.03;;;10.10;99.90;;;;;;5071222;28;20123;-69
2022/09/16 03:50:14;;;;;;;11.85;1.63;;;10.10;99.90;;;;;;5082372;28;20451;-70
2022/09/16 03:52:40;;;;;;;10.90;1.60;;;10.00;99.90;;;;;;5087654;28;20048;-70
2022/09/16 03:55:07;;;;;;;11.38;1.55;;;10.00;99.90;;;;;;5088231;28;20051;-71
2022/09/16 03:57:33;;;;;;;10.30;1.73;;;10.00;99.90;;;;;;5069921;28;20203;-69
2022/09/16 03:59:59;;;;;;;12.93;1.75;;;9.80;99.90;;;;;;5086653;28;20154;-70
2022/09/16 04:02:25;;;;;;;10.88;1.80;;;9.90;99.90;;;;;;5087722;28;20050;-70
2022/09/16 04:04:51;;;;;;;15.00;2.10;;;9.90;99.90;;;;;;5087305;28;20063;-70
2022/09/16 04:07:16;;;;;;;6.17;1.30;;;9.90;99.90;;;;;;5068037;28;20367;-70
2022/09/16 04:09:42;;;;;;;10.87;1.57;;;9.90;99.90;;;;;;5082319;28;20055;-71
2022/09/16 04:12:08;;;;;;;10.47;1.67;;;9.80;99.90;;;;;;5085997;28;20048;-70
2022/09/16 04:14:34;;;;;;;10.98;1.58;;;9.80;99.90;;;;;;5087890;28;20044;-71
2022/09/16 04:17:00;;;;;;;7.20;1.30;;;9.80;99.90;;;;;;5070344;28;20044;-71
2022/09/16 04:19:26;;;;;;;8.07;1.67;;;9.60;99.90;;;;;;5085153;28;20047;-71
2022/09/16 04:21:52;;;;;;;13.18;1.55;;;9.70;99.90;;;;;;5087555;28;20050;-71
2022/09/16 04:24:18;;;;;;;14.98;1.85;;;9.60;99.90;;;;;;5087457;28;20044;-71
2022/09/16 04:26:44;;;;;;;9.60;1.40;;;9.60;99.90;;;;;;5070929;28;20044;-72
2022/09/16 04:29:10;;;;;;;10.40;1.50;;;9.70;99.90;;;;;;5067502;28;20498;-71
2022/09/16 04:31:36;;;;;;;12.90;1.40;;;9.70;99.90;;;;;;5088876;28;20052;-71
2022/09/16 04:34:02;;;;;;;13.75;1.55;;;9.70;99.90;;;;;;5087418;28;20155;-71
2022/09/16 04:36:28;;;;;;;9.38;1.75;;;9.70;99.90;;;;;;5070640;28;20493;-71
2022/09/16 04:38:54;;;;;;;10.80;1.63;;;9.70;99.90;;;;;;5082045;28;20592;-71
2022/09/16 04:41:22;;;;;;;13.10;1.75;;;9.80;99.90;;;;;;5087788;28;20084;-70
2022/09/16 04:43:54;;;;;;;12.07;1.80;;;9.60;99.90;;;;;;5079805;28;20048;-71
2022/09/16 04:46:20;;;;;;;10.77;1.60;;;9.60;99.90;;;;;;5073507;28;20093;-71
2022/09/16 04:48:48;;;;;;;9.43;1.35;;;9.60;99.90;;;;;;5081620;28;20517;-71
2022/09/16 04:51:13;;;;;;;9.27;1.40;;;9.70;99.90;;;;;;5086517;28;20070;-71
2022/09/16 04:53:42;;;;;;;17.30;1.90;;;9.60;99.90;;;;;;5085725;28;20036;-71
2022/09/16 04:56:17;;;;;;;8.57;1.37;;;9.60;99.90;;;;;;5081214;28;20094;-73
2022/09/16 04:58:48;;;;;;;8.80;1.60;;;9.60;99.90;;;;;;5081007;28;20052;-72
2022/09/16 05:01:16;;;;;;;8.70;1.48;;;9.60;99.90;;;;;;5083079;28;20076;-72
2022/09/16 05:03:44;;;;;;;12.30;1.60;;;9.60;99.90;;;;;;5086206;28;20044;-72
2022/09/16 05:06:14;;;;;;;11.33;1.53;;;9.50;99.90;;;;;;5081410;28;20127;-72
2022/09/16 05:08:40;;;;;;;18.85;1.90;;;9.60;99.90;;;;;;5078778;28;20050;-71
2022/09/16 05:11:12;;;;;;;11.65;1.90;;;9.60;99.90;;;;;;5081123;28;20046;-71
2022/09/16 05:13:38;;;;;;;12.47;1.80;;;9.50;99.90;;;;;;5084515;28;20079;-72
2022/09/16 05:16:10;;;;;;;10.63;1.60;;;9.60;99.90;;;;;;5084292;28;20043;-71
2022/09/16 05:18:37;;;;;;;14.60;2.00;;;9.50;99.90;;;;;;5074136;28;20032;-72
2022/09/16 05:21:05;;;;;;;8.97;1.50;;;9.50;99.90;;;;;;5085159;28;20501;-71
2022/09/16 05:23:31;;;;;;;14.13;2.00;;;9.50;99.90;;;;;;5085001;28;20051;-72
2022/09/16 05:26:13;;;;;;;14.60;2.28;;;9.60;99.90;;;;;;5085446;28;20051;-72
2022/09/16 05:28:39;;;;;;;13.48;1.77;;;9.50;99.90;;;;;;5074716;28;20040;-72
2022/09/16 05:31:14;;;;;;;14.73;2.10;;;9.60;99.90;;;;;;5066251;28;20055;-72
2022/09/16 05:33:43;;;;;;;12.60;1.87;;;9.70;99.90;;;;;;5083974;28;20047;-72
2022/09/16 05:36:17;;;;;;;13.10;1.93;;;9.80;99.90;;;;;;5077078;28;20519;-73
2022/09/16 05:38:43;;;;;;;12.03;1.87;;;9.70;99.90;;;;;;5079142;28;20047;-73
2022/09/16 05:41:09;;;;;;;15.33;1.87;;;9.70;99.90;;;;;;5085864;28;20084;-72
2022/09/16 05:43:35;;;;;;;11.80;2.05;;;9.70;99.90;;;;;;5084076;28;20407;-72
2022/09/16 05:46:02;;;;;;;10.83;1.47;;;9.60;99.90;;;;;;5082499;28;20087;-73
2022/09/16 05:48:28;;;;;;;11.77;1.83;;;9.60;99.90;;;;;;5021985;28;20052;-72
2022/09/16 05:50:55;;;;;;;14.47;2.20;;;9.60;99.90;;;;;;5070861;28;20503;-73
2022/09/16 05:53:22;;;;;;;16.37;2.10;;;9.60;99.90;;;;;;5071358;28;20043;-73
2022/09/16 05:56:03;;;;;;;8.40;1.83;;;9.70;99.90;;;;;;5013494;28;20062;-73
2022/09/16 05:58:31;;;;;;;16.58;2.00;;;9.80;99.90;;;;;;5047938;28;20048;-73
2022/09/16 06:01:00;;;;;;;16.67;2.30;;;9.80;99.90;;;;;;5050039;28;20044;-73
2022/09/16 06:03:27;;;;;;;13.73;1.83;;;9.90;99.90;;;;;;5059871;28;20044;-73
2022/09/16 06:06:03;;;;;;;13.07;1.70;;;9.80;99.90;;;;;;5046033;28;20037;-74
2022/09/16 06:08:31;;;;;;;18.13;2.27;;;9.90;99.90;;;;;;5050757;28;20385;-74
2022/09/16 06:11:00;;;;;;;12.47;1.70;;;9.90;99.90;;;;;;5066007;28;20085;-74
2022/09/16 06:13:26;;;;;;;12.27;2.20;;;9.90;99.90;;;;;;5065991;28;20462;-73
2022/09/16 06:15:53;;;;;;;15.37;1.90;;;9.90;99.90;;;;;;5068266;28;20048;-72
2022/09/16 06:18:20;;;;;;;13.43;2.23;;;10.00;99.90;;;;;;5048751;28;20064;-72
2022/09/16 06:20:46;;;;;;;13.75;1.83;;;10.20;99.90;;;;;;5066344;28;20044;-73
2022/09/16 06:23:12;;;;;;;15.27;2.37;;;10.30;99.90;;;;;;5066506;28;20044;-73
2022/09/16 06:25:38;;;;;;;13.05;2.05;;;10.80;99.90;;;;;;5072566;28;20071;-73
2022/09/16 06:28:04;;;;;;;7.63;1.70;;;11.00;99.90;;;;;;5050705;28;20083;-72
2022/09/16 06:30:30;;;;;;;12.35;1.90;;;10.80;99.90;;;;;;5072470;28;20115;-72
2022/09/16 06:32:55;;;;;;;12.57;1.70;;;10.80;99.90;;;;;;5068526;28;20048;-73
2022/09/16 06:35:21;;;;;;;7.80;1.75;;;10.90;99.90;;;;;;5047721;28;20131;-73
2022/09/16 06:37:47;;;;;;;13.30;2.25;;;10.90;99.90;;;;;;5058949;28;20051;-74
2022/09/16 06:40:12;;;;;;;14.60;1.98;;;11.00;99.90;;;;;;5067789;28;20084;-72
2022/09/16 06:42:38;;;;;;;10.65;1.92;;;11.10;99.90;;;;;;5072962;28;20123;-73
2022/09/16 06:45:05;;;;;;;16.85;2.40;;;11.20;99.90;;;;;;5067558;28;20052;-74
2022/09/16 06:47:34;;;;;;;13.40;1.95;;;11.20;99.90;;;;;;5052742;28;20048;-72
2022/09/16 06:50:00;;;;;;;15.63;2.53;;;11.30;99.90;;;;;;5071749;28;20051;-74
2022/09/16 06:52:27;;;;;;;11.75;2.10;;;11.40;99.90;;;;;;5071876;28;20056;-74
2022/09/16 06:54:53;;;;;;;12.05;1.92;;;11.60;99.90;;;;;;5071803;28;20133;-72
2022/09/16 06:57:21;;;;;;;15.43;1.80;;;11.50;99.90;;;;;;5053456;28;20056;-74
2022/09/16 06:59:48;;;;;;;13.18;1.92;;;11.60;99.90;;;;;;5070073;28;20498;-73
2022/09/16 07:02:14;;;;;;;10.85;1.55;;;11.60;99.90;;;;;;5065355;28;20084;-74
2022/09/16 07:04:39;;;;;;;11.57;1.92;;;11.60;99.90;;;;;;5073801;28;20455;-72
2022/09/16 07:07:05;;;;;;;10.77;1.92;;;11.60;99.90;;;;;;5052391;28;20412;-71
2022/09/16 07:09:31;;;;;;;12.45;1.70;;;11.60;99.90;;;;;;5065977;28;20131;-72
2022/09/16 07:11:58;;;;;;;17.27;2.28;;;11.70;99.90;;;;;;5063210;28;20131;-73
2022/09/16 07:14:24;;;;;;;14.95;2.33;;;11.80;99.90;;;;;;5064499;28;20060;-74
2022/09/16 07:16:50;;;;;;;14.05;2.00;;;12.00;99.90;;;;;;5046210;28;20058;-73
2022/09/16 07:19:16;;;;;;;13.45;2.28;;;12.00;99.90;;;;;;5065893;28;20045;-74
2022/09/16 07:21:42;;;;;;;14.93;2.53;;;12.20;99.90;;;;;;5073507;28;20044;-73
2022/09/16 07:24:10;;;;;;;12.27;1.92;;;12.40;99.90;;;;;;5072671;28;20059;-74
2022/09/16 07:26:38;;;;;;;10.32;1.85;;;12.50;99.90;;;;;;5061973;28;20087;-74
2022/09/16 07:29:06;;;;;;;11.75;1.88;;;12.50;99.90;;;;;;5071159;28;20059;-74
2022/09/16 07:31:34;;;;;;;10.55;2.08;;;12.50;99.90;;;;;;5070595;28;20048;-74
2022/09/16 07:34:01;;;;;;;9.45;1.50;;;12.50;99.90;;;;;;5073498;28;20072;-73
2022/09/16 07:36:29;;;;;;;14.73;2.25;;;12.80;99.90;;;;;;5064346;28;20467;-73
2022/09/16 07:38:57;;;;;;;12.38;1.90;;;13.00;99.90;;;;;;5071470;28;20058;-73
2022/09/16 07:41:28;;;;;;;13.68;2.63;;;13.10;99.90;;;;;;5076472;28;20481;-74
2022/09/16 07:43:57;;;;;;;16.92;2.50;;;13.00;99.90;;;;;;5071010;28;20040;-74
2022/09/16 07:46:24;;;;;;;13.25;2.20;;;12.90;99.90;;;;;;5060575;28;20060;-74
2022/09/16 07:48:50;;;;;;;13.77;2.17;;;12.80;99.90;;;;;;5072615;28;20044;-74
2022/09/16 07:51:21;;;;;;;12.95;3.20;;;12.80;99.90;;;;;;5073853;28;20056;-73
2022/09/16 07:53:51;;;;;;;15.02;2.53;;;12.70;99.90;;;;;;5074830;28;20404;-73
2022/09/16 07:56:19;;;;;;;18.75;2.70;;;12.70;99.90;;;;;;5065024;28;20055;-73
2022/09/16 07:58:46;;;;;;;17.23;2.55;;;12.70;99.90;;;;;;5069213;28;20056;-73
2022/09/16 08:01:14;;;;;;;13.55;2.67;;;12.70;99.90;;;;;;5077041;28;20049;-73
2022/09/16 08:03:41;;;;;;;18.67;2.83;;;12.80;99.90;;;;;;5076724;28;20055;-73
2022/09/16 08:06:10;;;;;;;17.67;3.38;;;12.90;99.90;;;;;;5073234;28;21601;-73
2022/09/16 08:08:36;;;;;;;18.25;2.90;;;13.00;99.90;;;;;;5060845;28;20375;-73
2022/09/16 08:11:02;;;;;;;18.13;3.00;;;13.20;99.90;;;;;;5057531;28;20398;-74
2022/09/16 08:13:31;;;;;;;12.23;2.95;;;13.20;99.90;;;;;;5073792;28;20577;-73
2022/09/16 08:16:09;;;;;;;12.45;2.10;;;13.30;99.90;;;;;;5074965;28;20497;-74
2022/09/16 08:18:35;;;;;;;10.38;2.00;;;13.40;99.90;;;;;;5062625;28;20041;-74
2022/09/16 08:21:06;;;;;;;8.68;1.58;;;13.60;99.90;;;;;;5073390;28;20042;-74
2022/09/16 08:23:33;;;;;;;9.23;1.83;;;13.60;99.90;;;;;;5081165;28;20071;-74
2022/09/16 08:25:59;;;;;;;11.35;1.90;;;13.70;99.90;;;;;;5073798;28;20494;-74
2022/09/16 08:28:26;;;;;;;16.85;2.50;;;13.70;99.90;;;;;;5031292;28;20051;-74
2022/09/16 08:30:52;;;;;;;8.18;2.10;;;13.90;99.90;;;;;;5072123;28;20104;-73
2022/09/16 08:33:20;;;;;;;9.07;1.70;;;13.90;99.90;;;;;;5071367;28;20057;-74
2022/09/16 08:36:10;;;;;;;13.70;2.20;;;14.00;99.90;;;;;;5075459;28;20410;-73
2022/09/16 08:38:36;;;;;;;11.48;2.00;;;14.00;99.90;;;;;;5066838;28;20045;-73
2022/09/16 08:41:14;;;;;;;12.32;2.40;;;14.10;99.90;;;;;;5068914;28;20413;-72
2022/09/16 08:43:58;;;;;;;14.60;1.80;;;14.20;99.90;;;;;;5071351;28;20057;-74
2022/09/16 08:46:43;;;;;;;11.30;1.50;;;14.20;99.90;;;;;;5060247;28;20071;-74
2022/09/16 08:49:38;;;;;;;7.20;1.83;;;14.40;99.90;;;;;;5073201;28;20480;-73
2022/09/16 08:52:24;;;;;;;10.70;2.42;;;14.50;99.90;;;;;;5069589;28;20060;-75
2022/09/16 08:54:57;;;;;;;11.52;1.73;;;14.50;99.90;;;;;;5079859;28;20083;-75
2022/09/16 08:57:27;;;;;;;13.88;2.60;;;14.40;99.90;;;;;;5056480;28;20081;-75
2022/09/16 09:00:03;;;;;;;7.97;2.10;;;14.30;99.90;;;;;;5070273;28;20048;-75
2022/09/16 09:02:46;;;;;;;15.55;2.50;;;14.20;99.90;;;;;;5070475;28;20097;-74
2022/09/16 09:05:52;;;;;;;11.30;1.98;;;14.30;99.90;;;;;;5063070;28;20055;-75
2022/09/16 09:08:38;;;;;;;10.50;2.30;;;14.50;99.90;;;;;;5021027;28;20053;-74
2022/09/16 09:11:11;;;;;;;15.10;2.92;;;14.70;99.90;;;;;;5051316;28;20056;-75
2022/09/16 09:14:05;;;;;;;15.38;2.92;;;14.70;99.90;;;;;;5052050;28;20052;-75
2022/09/16 09:16:57;;;;;;;11.95;2.58;;;14.40;99.90;;;;;;5037164;28;20497;-74
2022/09/16 09:19:32;;;;;;;14.15;2.30;;;14.40;99.90;;;;;;5051757;28;20051;-73
2022/09/16 09:22:07;;;;;;;12.32;2.10;;;14.20;99.90;;;;;;5051803;28;20088;-74
2022/09/16 09:25:16;;;;;;;9.88;2.08;;;14.10;99.90;;;;;;5050974;28;20045;-75
2022/09/16 09:27:59;;;;;;;10.00;1.75;;;14.30;99.90;;;;;;5037776;28;20098;-74
2022/09/16 09:30:27;;;;;;;11.98;1.95;;;14.40;99.90;;;;;;5051360;28;20044;-73
2022/09/16 09:32:59;;;;;;;12.10;2.00;;;14.60;99.90;;;;;;5049486;28;20577;-74
2022/09/16 09:35:36;;;;;;;11.95;2.17;;;14.70;99.90;;;;;;5049386;28;20052;-74
2022/09/16 09:38:45;;;;;;;12.35;1.77;;;14.90;99.90;;;;;;5034222;28;20049;-74
2022/09/16 09:41:19;;;;;;;11.10;1.88;;;15.00;99.90;;;;;;5043406;28;20462;-74
2022/09/16 09:44:14;;;;;;;9.98;1.90;;;15.00;99.90;;;;;;5049827;28;20053;-75
2022/09/16 09:46:44;;;;;;;11.48;1.92;;;15.10;99.90;;;;;;5040978;28;20048;-74
2022/09/16 09:49:20;;;;;;;11.40;1.60;;;15.10;99.90;;;;;;5043371;28;20047;-74
2022/09/16 09:52:10;;;;;;;10.32;1.50;;;15.10;99.90;;;;;;5056380;28;20041;-75
2022/09/16 09:54:37;;;;;;;12.68;2.00;;;15.30;99.90;;;;;;5054819;28;20052;-75
2022/09/16 09:57:30;;;;;;;12.80;1.95;;;15.40;99.90;;;;;;5035935;28;20052;-73
2022/09/16 10:00:20;;;;;;;10.38;2.08;;;15.40;99.90;;;;;;5059047;28;20554;-72
2022/09/16 10:02:46;;;;;;;19.23;2.28;;;15.10;99.90;;;;;;5051171;28;20194;-72
2022/09/16 10:05:24;;;;;;;12.02;1.90;;;14.80;99.90;;;;;;5051029;28;20156;-75
2022/09/16 10:07:53;;;;;;;8.68;1.52;;;14.60;99.90;;;;;;5033422;28;20052;-75
2022/09/16 10:10:22;;;;;;;14.50;1.95;;;14.80;99.90;;;;;;5050854;28;20055;-73
2022/09/16 10:12:48;;;;;;;18.95;2.50;;;15.10;99.90;;;;;;5050792;28;20048;-74
2022/09/16 10:15:21;;;;;;;9.88;1.65;;;15.40;99.90;;;;;;5050929;28;20471;-74
2022/09/16 10:17:49;;;;;;;9.77;2.00;;;15.60;99.90;;;;;;5036059;28;20627;-74
2022/09/16 10:20:39;;;;;;;16.45;2.60;;;15.70;99.90;;;;;;5026112;28;20052;-73
2022/09/16 10:23:19;;;;;;;14.85;2.03;;;15.50;99.90;;;;;;5049210;28;20055;-74
2022/09/16 10:25:45;;;;;;;7.85;1.42;;;14.90;99.90;;;;;;5051372;28;20045;-71
2022/09/16 10:28:24;;;;;;;7.38;1.60;;;14.70;99.90;;;;;;5027147;28;20117;-74
2022/09/16 10:30:53;;;;;;;14.60;2.03;;;14.80;99.90;;;;;;5052405;28;20106;-73
2022/09/16 10:33:23;;;;;;;12.02;1.70;;;14.80;99.90;;;;;;5049437;28;20048;-76
2022/09/16 10:36:02;;;;;;;9.15;2.10;;;14.90;99.90;;;;;;5051947;28;20113;-74
2022/09/16 10:38:42;;;;;;;9.70;2.03;;;15.00;99.90;;;;;;5035163;28;20523;-74
2022/09/16 10:41:21;;;;;;;9.80;1.83;;;15.20;99.90;;;;;;5049153;28;20061;-73
2022/09/16 10:43:53;;;;;;;10.27;1.42;;;15.30;99.90;;;;;;5050566;28;20488;-74
2022/09/16 10:46:19;;;;;;;6.63;1.48;;;15.20;99.90;;;;;;5038647;28;20036;-75
2022/09/16 10:48:47;;;;;;;8.57;1.63;;;15.40;99.90;;;;;;5045325;28;20429;-74
2022/09/16 10:51:25;;;;;;;8.75;1.92;;;15.50;99.90;;;;;;5049407;28;20059;-73
2022/09/16 10:53:59;;;;;;;9.57;1.65;;;15.60;99.90;;;;;;5049525;28;20119;-71
2022/09/16 10:56:30;;;;;;;10.77;2.30;;;15.80;99.90;;;;;;5036034;28;20983;-73
2022/09/16 10:59:13;;;;;;;8.35;1.50;;;15.90;99.90;;;;;;5048446;28;20045;-71
2022/09/16 11:01:44;;;;;;;12.10;2.47;;;15.90;99.90;;;;;;5024586;28;20041;-72
2022/09/16 11:04:37;;;;;;;10.90;2.40;;;15.60;99.90;;;;;;5048371;28;20057;-71
2022/09/16 11:07:33;;;;;;;12.32;2.30;;;15.70;99.90;;;;;;5030761;28;20053;-72
2022/09/16 11:10:29;;;;;;;13.88;2.72;;;15.60;99.90;;;;;;5057461;28;20140;-72
2022/09/16 11:13:29;;;;;;;11.25;2.15;;;15.40;99.90;;;;;;5050929;28;20044;-72
2022/09/16 11:16:27;;;;;;;13.05;2.08;;;15.50;99.90;;;;;;5041299;28;20049;-72
2022/09/16 11:19:11;;;;;;;10.70;2.10;;;15.50;99.90;;;;;;5046959;28;20048;-73
2022/09/16 11:21:45;;;;;;;10.82;1.92;;;15.50;99.90;;;;;;5049347;28;20049;-71
2022/09/16 11:24:42;;;;;;;14.52;2.08;;;15.60;99.90;;;;;;5024389;28;20072;-73
2022/09/16 11:27:16;;;;;;;14.13;2.60;;;15.70;99.90;;;;;;5031584;28;20051;-72
2022/09/16 11:30:02;;;;;;;11.75;2.65;;;15.80;99.90;;;;;;5050104;28;20157;-71
2022/09/16 11:33:03;;;;;;;15.60;3.25;;;15.80;99.90;;;;;;5047548;28;20067;-72
2022/09/16 11:35:59;;;;;;;14.32;2.78;;;15.80;99.90;;;;;;5049746;28;20044;-71
2022/09/16 11:38:42;;;;;;;22.25;2.85;;;15.90;99.90;;;;;;5033962;28;20132;-71
2022/09/16 11:41:32;;;;;;;15.73;2.33;;;15.80;99.90;;;;;;5057685;28;20159;-72
2022/09/16 11:44:19;;;;;;;16.92;2.80;;;16.00;99.90;;;;;;5045743;28;20036;-72
2022/09/16 11:47:15;;;;;;;16.27;3.00;;;15.90;99.90;;;;;;5029887;28;20049;-73
2022/09/16 11:49:51;;;;;;;10.50;2.20;;;15.90;99.90;;;;;;5051031;28;20056;-72
2022/09/16 11:52:48;;;;;;;16.88;3.00;;;16.10;99.90;;;;;;5047595;28;20123;-72
2022/09/16 11:55:28;;;;;;;19.33;3.30;;;16.10;99.90;;;;;;5048315;28;20408;-72
2022/09/16 11:58:28;;;;;;;17.70;3.22;;;16.10;99.90;;;;;;5027485;28;20048;-72
2022/09/16 12:00:58;;;;;;;18.48;2.95;;;16.00;99.90;;;;;;5047521;28;20084;-73
2022/09/16 12:03:54;;;;;;;13.45;2.65;;;15.90;99.90;;;;;;5047796;28;20033;-72
2022/09/16 12:06:25;;;;;;;14.07;3.30;;;16.00;99.90;;;;;;5036181;28;20049;-72
2022/09/16 12:09:01;;;;;;;18.88;3.17;;;15.90;99.90;;;;;;5051447;28;20072;-72
2022/09/16 12:11:36;;;;;;;15.88;3.63;;;15.90;99.90;;;;;;5042192;28;20076;-73
2022/09/16 12:14:11;;;;;;;21.05;3.92;;;15.60;99.90;;;;;;5049079;28;20068;-73
2022/09/16 12:16:46;;;;;;;14.77;3.05;;;15.70;99.90;;;;;;5038937;28;20102;-72
2022/09/16 12:19:23;;;;;;;20.67;3.50;;;15.60;99.90;;;;;;5050961;28;20667;-71
2022/09/16 12:22:11;;;;;;;16.95;3.00;;;15.70;99.90;;;;;;5052847;28;20044;-72
2022/09/16 12:24:40;;;;;;;19.02;3.25;;;15.70;99.90;;;;;;5061236;28;20079;-71
2022/09/16 12:27:16;;;;;;;19.50;3.67;;;15.80;99.90;;;;;;5034317;28;20535;-73
2022/09/16 12:30:03;;;;;;;15.88;3.25;;;15.80;99.90;;;;;;5052908;28;20369;-71
2022/09/16 12:33:11;;;;;;;23.23;4.15;;;16.00;99.90;;;;;;5050814;28;20055;-72
2022/09/16 12:35:41;;;;;;;27.42;3.33;;;15.70;99.90;;;;;;4983340;28;20054;-71
2022/09/16 12:38:18;;;;;;;11.40;2.60;;;15.60;99.90;;;;;;5026593;28;20462;-71
2022/09/16 12:41:15;;;;;;;9.38;1.95;;;15.10;99.90;;;;;;5051635;28;20061;-72
2022/09/16 12:44:06;;;;;;;10.23;1.92;;;15.00;99.90;;;;;;5049987;28;20036;-71
2022/09/16 12:47:00;;;;;;;13.05;2.47;;;15.00;99.90;;;;;;5034456;28;20597;-71
2022/09/16 12:49:52;;;;;;;12.23;2.20;;;14.90;99.90;;;;;;5028093;28;20041;-71
2022/09/16 12:52:26;;;;;;;10.82;2.20;;;14.90;99.90;;;;;;5049608;28;20064;-72
2022/09/16 12:55:08;;;;;;;9.10;1.70;;;15.00;99.90;;;;;;5053064;28;20418;-72
2022/09/16 12:57:45;;;;;;;6.75;1.27;;;15.00;99.90;;;;;;5027709;28;20168;-73
2022/09/16 13:00:31;;;;;;;4.93;0.80;;;14.90;99.90;;;;;;5027407;28;20052;-70
2022/09/16 13:03:05;;;;;;;7.35;1.08;;;14.90;99.90;;;;;;5046771;28;20094;-70
2022/09/16 13:05:35;;;;;;;7.40;1.30;;;14.90;99.90;;;;;;5050431;28;20036;-71
2022/09/16 13:08:06;;;;;;;7.00;0.90;;;14.70;99.90;;;;;;5031060;28;20056;-71
2022/09/16 13:10:38;;;;;;;5.85;0.90;;;14.60;99.90;;;;;;5049625;28;20055;-71
2022/09/16 13:13:06;;;;;;;7.18;0.93;;;14.40;99.90;;;;;;5048720;28;20521;-71
2022/09/16 13:15:38;;;;;;;8.98;0.90;;;13.80;99.90;;;;;;5048474;28;20055;-71
2022/09/16 13:18:15;;;;;;;9.98;1.58;;;13.40;99.90;;;;;;5033780;28;20159;-70